Time;durP1;ratioP1;P1;durP2;ratioP2;P2;SDS_P1;SDS_P2;PMS_P1;PMS_P2;Temp;Humidity;BMP_temperature;BMP_pressure;BME280_temperature;BME280_humidity;BME280_pressure;Samples;Min_cycle;Max_cycle;Signal;HPM_P1;HPM_P2
2022/07/15 00:01:49;;;;;;;1.60;1.50;;;18.10;48.70;;;;;;936549;149;27274;-70
2022/07/15 00:04:14;;;;;;;2.63;1.67;;;18.10;48.90;;;;;;937101;149;27368;-70
2022/07/15 00:06:41;;;;;;;3.55;1.77;;;18.00;48.90;;;;;;936354;149;27368;-69
2022/07/15 00:09:08;;;;;;;3.10;1.80;;;17.90;49.20;;;;;;934758;149;27682;-73
2022/07/15 00:11:34;;;;;;;2.27;2.03;;;17.90;49.30;;;;;;936334;149;27439;-70
2022/07/15 00:14:01;;;;;;;2.67;1.57;;;17.80;49.30;;;;;;937754;149;27413;-71
2022/07/15 00:16:27;;;;;;;2.57;1.77;;;17.80;49.30;;;;;;937626;149;27817;-70
2022/07/15 00:18:54;;;;;;;2.13;1.63;;;17.80;49.40;;;;;;960268;145;27272;-72
2022/07/15 00:21:20;;;;;;;2.60;1.65;;;17.70;49.50;;;;;;959533;145;27293;-73
2022/07/15 00:23:47;;;;;;;4.00;1.77;;;17.60;49.60;;;;;;960573;145;27340;-71
2022/07/15 00:26:14;;;;;;;1.80;1.57;;;17.60;49.80;;;;;;960646;145;27787;-70
2022/07/15 00:28:40;;;;;;;3.05;1.90;;;17.50;49.90;;;;;;961326;145;27282;-69
2022/07/15 00:31:07;;;;;;;1.50;1.40;;;17.50;50.10;;;;;;961602;145;27731;-71
2022/07/15 00:33:33;;;;;;;3.57;1.50;;;17.50;50.30;;;;;;958288;145;27430;-71
2022/07/15 00:36:00;;;;;;;2.20;1.40;;;17.40;50.30;;;;;;961977;145;27323;-70
2022/07/15 00:38:26;;;;;;;1.13;1.07;;;17.40;50.40;;;;;;937928;149;27377;-69
2022/07/15 00:40:53;;;;;;;4.13;1.70;;;17.30;50.50;;;;;;960960;146;27300;-70
2022/07/15 00:43:20;;;;;;;1.47;1.37;;;17.30;50.50;;;;;;936898;151;27386;-70
2022/07/15 00:45:46;;;;;;;1.50;1.40;;;17.20;50.50;;;;;;959491;145;27317;-71
2022/07/15 00:48:13;;;;;;;2.40;1.50;;;17.20;50.70;;;;;;937779;149;27478;-73
2022/07/15 00:50:39;;;;;;;1.10;1.10;;;17.10;50.80;;;;;;939240;149;27372;-70
2022/07/15 00:53:18;;;;;;;2.97;1.77;;;17.10;51.10;;;;;;959876;145;27886;-70
2022/07/15 00:55:45;;;;;;;1.83;1.63;;;17.00;51.20;;;;;;960156;145;27313;-69
2022/07/15 00:58:11;;;;;;;2.87;1.70;;;17.00;51.30;;;;;;961618;145;27308;-71
2022/07/15 01:00:38;;;;;;;4.60;1.97;;;16.90;51.50;;;;;;959235;145;27393;-72
2022/07/15 01:03:04;;;;;;;3.27;2.00;;;16.90;51.50;;;;;;959035;145;27424;-69
2022/07/15 01:05:31;;;;;;;3.83;2.13;;;16.80;51.60;;;;;;959534;145;27466;-70
2022/07/15 01:07:58;;;;;;;2.90;2.10;;;16.80;51.70;;;;;;960238;145;27344;-71
2022/07/15 01:10:24;;;;;;;3.73;2.40;;;16.70;51.70;;;;;;961571;145;27314;-70
2022/07/15 01:12:51;;;;;;;4.17;1.93;;;16.60;51.80;;;;;;955878;146;27297;-71
2022/07/15 01:15:17;;;;;;;3.60;2.10;;;16.60;51.90;;;;;;933057;151;27385;-73
2022/07/15 01:17:44;;;;;;;5.27;2.00;;;16.50;52.10;;;;;;921676;152;27418;-70
2022/07/15 01:20:12;;;;;;;3.63;2.00;;;16.50;52.30;;;;;;921573;152;27474;-69
2022/07/15 01:22:37;;;;;;;2.07;1.87;;;16.40;52.40;;;;;;939942;149;27333;-70
2022/07/15 01:25:04;;;;;;;2.00;1.60;;;16.30;52.40;;;;;;938643;151;27324;-70
2022/07/15 01:27:32;;;;;;;1.93;1.60;;;16.30;52.50;;;;;;933714;151;27400;-73
2022/07/15 01:29:58;;;;;;;2.03;1.43;;;16.30;52.70;;;;;;923575;152;28090;-70
2022/07/15 01:32:23;;;;;;;1.50;1.40;;;16.20;52.80;;;;;;924222;152;27353;-70
2022/07/15 01:34:51;;;;;;;1.43;1.07;;;16.20;52.90;;;;;;940848;149;27432;-70
2022/07/15 01:37:17;;;;;;;1.03;1.03;;;16.10;53.10;;;;;;937409;149;27299;-70
2022/07/15 01:39:43;;;;;;;1.10;1.10;;;16.10;53.20;;;;;;936240;149;27350;-73
2022/07/15 01:42:10;;;;;;;1.60;1.50;;;16.00;53.20;;;;;;939189;149;27353;-69
2022/07/15 01:44:36;;;;;;;9.17;1.37;;;16.00;53.30;;;;;;937297;149;27884;-70
2022/07/15 01:47:03;;;;;;;1.40;1.30;;;15.90;53.40;;;;;;935809;149;27372;-70
2022/07/15 01:49:31;;;;;;;2.27;1.60;;;15.90;53.50;;;;;;938056;149;27370;-70
2022/07/15 01:51:56;;;;;;;1.37;1.27;;;15.80;53.70;;;;;;936932;149;27381;-70
2022/07/15 01:54:23;;;;;;;0.87;0.87;;;15.80;53.90;;;;;;938089;149;27344;-73
2022/07/15 01:56:49;;;;;;;1.30;1.20;;;15.70;54.00;;;;;;936438;149;27476;-71
2022/07/15 01:59:16;;;;;;;2.93;1.43;;;15.70;54.10;;;;;;936128;149;27315;-70
2022/07/15 02:01:42;;;;;;;1.30;1.20;;;15.60;54.10;;;;;;936988;149;27282;-69
2022/07/15 02:04:09;;;;;;;1.40;1.30;;;15.60;54.30;;;;;;938494;149;27342;-72
2022/07/15 02:06:36;;;;;;;2.27;1.43;;;15.50;54.30;;;;;;935505;148;27624;-73
2022/07/15 02:09:02;;;;;;;1.60;1.33;;;15.50;54.50;;;;;;937422;149;27361;-69
2022/07/15 02:11:29;;;;;;;1.50;1.40;;;15.40;54.60;;;;;;936394;149;27345;-73
2022/07/15 02:13:58;;;;;;;1.60;1.23;;;15.40;54.70;;;;;;937992;149;27378;-69
2022/07/15 02:16:22;;;;;;;1.70;1.60;;;15.30;54.80;;;;;;937272;149;27333;-70
2022/07/15 02:18:49;;;;;;;1.50;1.17;;;15.30;55.00;;;;;;939765;149;27354;-71
2022/07/15 02:21:15;;;;;;;1.27;1.20;;;15.30;55.20;;;;;;938343;149;27450;-70
2022/07/15 02:23:42;;;;;;;1.83;1.40;;;15.20;55.30;;;;;;937059;149;27487;-70
2022/07/15 02:26:08;;;;;;;1.43;1.33;;;15.20;55.60;;;;;;938941;149;27351;-70
2022/07/15 02:28:35;;;;;;;1.50;1.40;;;15.10;55.40;;;;;;936901;149;27755;-70
2022/07/15 02:31:02;;;;;;;2.47;1.37;;;15.10;55.60;;;;;;937038;149;27423;-70
2022/07/15 02:33:28;;;;;;;2.40;1.37;;;15.10;55.80;;;;;;938367;149;27405;-73
2022/07/15 02:35:55;;;;;;;1.67;1.40;;;15.00;55.90;;;;;;939586;149;27369;-70
2022/07/15 02:38:22;;;;;;;1.43;1.33;;;15.00;55.90;;;;;;939474;149;27350;-70
2022/07/15 02:40:48;;;;;;;1.50;1.40;;;15.00;56.00;;;;;;939689;149;27430;-70
2022/07/15 02:43:15;;;;;;;1.90;1.60;;;14.90;56.00;;;;;;937249;149;27309;-69
2022/07/15 02:45:41;;;;;;;1.23;1.23;;;14.90;56.20;;;;;;937381;149;27321;-71
2022/07/15 02:48:08;;;;;;;1.50;1.40;;;14.80;56.30;;;;;;938856;149;27461;-73
2022/07/15 02:50:34;;;;;;;1.63;1.40;;;14.80;56.50;;;;;;935648;149;27372;-70
2022/07/15 02:53:01;;;;;;;1.43;1.33;;;14.80;56.60;;;;;;936556;149;27365;-69
2022/07/15 02:55:28;;;;;;;1.40;1.30;;;14.80;56.60;;;;;;935853;149;27337;-70
2022/07/15 02:57:54;;;;;;;1.97;1.83;;;14.80;56.70;;;;;;936145;149;27310;-70
2022/07/15 03:00:21;;;;;;;1.80;1.33;;;14.70;56.70;;;;;;938200;149;27402;-73
2022/07/15 03:02:47;;;;;;;1.80;1.60;;;14.70;56.90;;;;;;937015;149;27805;-71
2022/07/15 03:05:14;;;;;;;1.50;1.40;;;14.70;56.90;;;;;;937929;149;27351;-71
2022/07/15 03:07:41;;;;;;;2.10;1.80;;;14.60;57.10;;;;;;938996;149;27390;-72
2022/07/15 03:10:07;;;;;;;2.93;1.60;;;14.60;57.40;;;;;;940845;149;27321;-71
2022/07/15 03:12:34;;;;;;;2.20;1.50;;;14.60;57.00;;;;;;938120;149;27507;-73
2022/07/15 03:15:00;;;;;;;2.13;1.47;;;14.60;57.90;;;;;;937901;149;27373;-71
2022/07/15 03:17:27;;;;;;;1.50;1.40;;;14.70;58.00;;;;;;936330;149;27338;-72
2022/07/15 03:19:56;;;;;;;1.63;1.30;;;14.70;58.10;;;;;;938337;149;27335;-72
2022/07/15 03:22:21;;;;;;;2.93;1.97;;;14.70;58.20;;;;;;937127;149;27301;-71
2022/07/15 03:24:48;;;;;;;1.77;1.60;;;14.80;58.30;;;;;;936789;149;27361;-73
2022/07/15 03:27:14;;;;;;;3.20;2.40;;;14.90;58.30;;;;;;936500;151;27458;-71
2022/07/15 03:29:40;;;;;;;1.70;1.60;;;15.00;58.30;;;;;;961556;145;27325;-70
2022/07/15 03:32:06;;;;;;;2.40;1.57;;;15.10;58.20;;;;;;962062;145;27366;-70
2022/07/15 03:34:33;;;;;;;2.23;1.50;;;15.20;58.20;;;;;;961534;145;27291;-71
2022/07/15 03:37:00;;;;;;;1.60;1.50;;;15.20;58.10;;;;;;961684;145;27931;-72
2022/07/15 03:39:26;;;;;;;1.60;1.50;;;15.30;58.20;;;;;;959728;145;27327;-73
2022/07/15 03:41:53;;;;;;;2.73;1.57;;;15.40;58.30;;;;;;958304;145;27428;-70
2022/07/15 03:44:19;;;;;;;2.63;1.50;;;15.50;58.20;;;;;;960635;145;27351;-71
2022/07/15 03:46:46;;;;;;;2.07;1.40;;;15.50;58.10;;;;;;957451;145;27291;-71
2022/07/15 03:49:13;;;;;;;1.57;1.47;;;15.50;58.10;;;;;;958441;145;27328;-71
2022/07/15 03:51:39;;;;;;;3.17;1.97;;;15.60;58.00;;;;;;960206;145;27474;-73
2022/07/15 03:54:06;;;;;;;2.93;1.57;;;15.60;58.00;;;;;;960330;145;27400;-70
2022/07/15 03:56:32;;;;;;;1.90;1.70;;;15.60;58.00;;;;;;960588;145;27584;-71
2022/07/15 03:58:59;;;;;;;2.20;1.90;;;15.70;57.90;;;;;;962165;145;28159;-72
2022/07/15 04:01:25;;;;;;;2.23;1.97;;;15.70;57.90;;;;;;960500;145;27315;-71
2022/07/15 04:03:52;;;;;;;1.87;1.60;;;15.70;57.80;;;;;;960795;145;27884;-73
2022/07/15 04:06:19;;;;;;;2.03;1.93;;;15.70;57.80;;;;;;962089;145;27340;-71
2022/07/15 04:08:45;;;;;;;1.93;1.73;;;15.70;57.90;;;;;;939217;149;27388;-72
2022/07/15 04:11:12;;;;;;;2.03;1.90;;;15.70;57.90;;;;;;939892;149;27386;-71
2022/07/15 04:13:38;;;;;;;2.43;2.13;;;15.70;57.90;;;;;;939393;149;27454;-71
2022/07/15 04:16:05;;;;;;;2.33;2.13;;;15.70;57.90;;;;;;938155;149;27363;-71
2022/07/15 04:18:32;;;;;;;1.70;1.60;;;15.70;58.00;;;;;;924499;151;27391;-71
2022/07/15 04:20:58;;;;;;;1.70;1.60;;;15.70;58.00;;;;;;937285;151;27449;-71
2022/07/15 04:23:25;;;;;;;1.57;1.47;;;15.60;58.20;;;;;;933746;149;27426;-72
2022/07/15 04:25:54;;;;;;;2.07;1.67;;;15.70;58.20;;;;;;934346;149;27436;-71
2022/07/15 04:28:20;;;;;;;1.83;1.73;;;15.70;58.80;;;;;;936037;149;27435;-71
2022/07/15 04:30:47;;;;;;;2.10;1.70;;;15.70;58.50;;;;;;935038;149;27366;-71
2022/07/15 04:33:14;;;;;;;3.10;1.90;;;15.80;58.60;;;;;;934330;149;27467;-71
2022/07/15 04:35:40;;;;;;;3.10;1.87;;;15.90;58.80;;;;;;935043;149;27368;-71
2022/07/15 04:38:07;;;;;;;1.70;1.60;;;16.00;59.00;;;;;;933915;149;27327;-71
2022/07/15 04:40:33;;;;;;;1.70;1.60;;;16.20;59.10;;;;;;935462;149;27334;-73
2022/07/15 04:43:00;;;;;;;1.50;1.40;;;16.30;59.10;;;;;;933811;149;27362;-71
2022/07/15 04:45:27;;;;;;;3.17;1.90;;;16.50;59.20;;;;;;936617;149;27880;-71
2022/07/15 04:47:53;;;;;;;1.75;1.65;;;16.70;58.50;;;;;;935108;149;27346;-71
2022/07/15 04:53:04;;;;;;;3.27;1.50;;;17.10;58.90;;;;;;935300;149;27510;-71
2022/07/15 04:55:31;;;;;;;1.92;1.57;;;17.40;58.50;;;;;;935717;149;27474;-73
2022/07/15 04:57:57;;;;;;;2.98;1.72;;;17.60;58.30;;;;;;935132;149;27365;-71
2022/07/15 05:00:24;;;;;;;3.27;1.47;;;17.90;58.10;;;;;;935933;149;27426;-72
2022/07/15 05:02:51;;;;;;;1.60;1.42;;;18.10;58.20;;;;;;935814;149;27313;-71
2022/07/15 05:05:18;;;;;;;1.70;1.27;;;18.40;58.20;;;;;;934392;149;27349;-71
2022/07/15 05:07:44;;;;;;;1.67;1.20;;;18.80;58.10;;;;;;934717;149;27422;-71
2022/07/15 05:10:11;;;;;;;2.42;1.50;;;19.20;57.90;;;;;;927768;152;27408;-71
2022/07/15 05:12:37;;;;;;;2.35;1.20;;;19.60;57.60;;;;;;918832;152;27410;-71
2022/07/15 05:15:04;;;;;;;1.57;1.32;;;20.00;57.60;;;;;;942092;148;27361;-72
2022/07/15 05:17:30;;;;;;;1.12;0.95;;;20.50;57.30;;;;;;942089;148;27331;-72
2022/07/15 05:19:57;;;;;;;1.22;1.00;;;21.00;56.60;;;;;;942825;148;27386;-72
2022/07/15 05:22:23;;;;;;;1.57;1.22;;;21.50;55.70;;;;;;942468;148;27385;-73
2022/07/15 05:24:50;;;;;;;2.00;1.20;;;21.80;54.70;;;;;;944234;148;27359;-71
2022/07/15 05:27:17;;;;;;;2.37;1.12;;;22.10;53.90;;;;;;941486;148;27307;-71
2022/07/15 05:29:44;;;;;;;1.50;1.30;;;22.30;53.20;;;;;;942712;148;27446;-71
2022/07/15 05:32:10;;;;;;;2.12;1.12;;;22.40;52.30;;;;;;943983;148;27337;-72
2022/07/15 05:34:36;;;;;;;1.57;1.12;;;22.50;51.80;;;;;;941216;148;27448;-74
2022/07/15 05:37:03;;;;;;;1.35;1.25;;;22.50;51.40;;;;;;943421;148;27385;-71
2022/07/15 05:39:30;;;;;;;1.35;1.25;;;22.40;51.70;;;;;;941302;151;27370;-71
2022/07/15 05:41:58;;;;;;;1.57;1.25;;;22.40;51.00;;;;;;942591;148;27331;-71
2022/07/15 05:44:23;;;;;;;1.32;1.27;;;22.30;50.90;;;;;;928805;151;27310;-71
2022/07/15 05:46:50;;;;;;;2.75;1.42;;;22.30;51.10;;;;;;943618;148;27344;-73
2022/07/15 05:49:16;;;;;;;1.05;0.95;;;22.20;51.00;;;;;;940450;151;27338;-71
2022/07/15 05:51:42;;;;;;;2.87;1.12;;;22.20;50.90;;;;;;943054;148;27974;-71
2022/07/15 05:54:13;;;;;;;1.55;1.05;;;22.10;50.80;;;;;;941333;151;27330;-73
2022/07/15 05:56:36;;;;;;;1.32;1.00;;;22.00;50.70;;;;;;941978;151;27307;-72
2022/07/15 05:59:02;;;;;;;1.27;1.15;;;22.00;50.80;;;;;;929514;151;27408;-71
2022/07/15 06:01:29;;;;;;;2.70;1.10;;;21.90;50.80;;;;;;926152;151;27399;-73
2022/07/15 06:03:55;;;;;;;2.10;1.30;;;21.80;50.90;;;;;;942725;148;28387;-71
2022/07/15 06:06:22;;;;;;;1.17;1.07;;;21.80;51.10;;;;;;959055;146;27313;-71
2022/07/15 06:08:49;;;;;;;1.87;1.10;;;21.70;51.10;;;;;;961655;146;27785;-71
2022/07/15 06:11:15;;;;;;;3.02;1.20;;;21.60;51.10;;;;;;961091;146;27342;-71
2022/07/15 06:13:42;;;;;;;1.65;0.98;;;21.60;51.10;;;;;;959663;146;27705;-72
2022/07/15 06:16:08;;;;;;;1.22;1.12;;;21.50;51.10;;;;;;959941;146;27386;-72
2022/07/15 06:18:35;;;;;;;3.22;1.82;;;21.50;51.20;;;;;;956114;148;27394;-71
2022/07/15 06:21:02;;;;;;;1.27;1.10;;;21.50;51.40;;;;;;957907;148;27416;-72
2022/07/15 06:23:28;;;;;;;2.45;1.22;;;21.40;51.60;;;;;;957491;148;27268;-72
2022/07/15 06:25:56;;;;;;;3.92;1.40;;;21.40;51.80;;;;;;958775;148;27385;-73
2022/07/15 06:28:21;;;;;;;3.98;1.98;;;21.40;51.90;;;;;;957208;148;27441;-71
2022/07/15 06:30:48;;;;;;;4.80;1.25;;;21.50;52.10;;;;;;959682;148;27912;-70
2022/07/15 06:33:14;;;;;;;1.30;1.20;;;21.60;52.10;;;;;;955883;148;27287;-72
2022/07/15 06:35:41;;;;;;;1.92;1.45;;;21.70;52.00;;;;;;955299;148;27258;-70
2022/07/15 06:38:08;;;;;;;0.93;0.90;;;21.90;52.00;;;;;;954654;148;27274;-72
2022/07/15 06:40:35;;;;;;;2.72;1.45;;;22.10;52.30;;;;;;959057;148;27335;-73
2022/07/15 06:43:01;;;;;;;0.90;0.90;;;22.30;52.40;;;;;;959262;146;27426;-72
2022/07/15 06:45:27;;;;;;;1.67;1.20;;;22.50;52.10;;;;;;956425;148;27374;-70
2022/07/15 06:47:54;;;;;;;3.05;1.10;;;22.80;51.70;;;;;;960329;148;27427;-70
2022/07/15 06:50:24;;;;;;;1.80;1.10;;;22.90;51.20;;;;;;957966;148;27338;-70
2022/07/15 06:52:47;;;;;;;1.85;0.95;;;23.20;51.00;;;;;;956712;148;27467;-73
2022/07/15 06:55:14;;;;;;;1.52;1.20;;;23.40;51.40;;;;;;955589;148;27846;-71
2022/07/15 06:57:40;;;;;;;2.60;1.20;;;23.80;52.00;;;;;;957927;148;27334;-71
2022/07/15 07:00:08;;;;;;;1.47;1.00;;;24.20;52.00;;;;;;958934;146;28020;-71
2022/07/15 07:02:34;;;;;;;4.20;1.50;;;24.70;51.90;;;;;;956641;148;27300;-71
2022/07/15 07:05:00;;;;;;;2.47;1.17;;;25.40;51.40;;;;;;957451;148;27400;-72
2022/07/15 07:07:27;;;;;;;2.15;1.05;;;25.90;50.40;;;;;;957955;148;27333;-70
2022/07/15 07:09:53;;;;;;;1.40;1.30;;;26.30;49.30;;;;;;960242;148;27943;-70
2022/07/15 07:12:20;;;;;;;2.87;1.12;;;26.60;48.30;;;;;;957139;148;27391;-71
2022/07/15 07:14:46;;;;;;;1.10;1.00;;;26.90;47.70;;;;;;957868;146;27383;-71
2022/07/15 07:17:13;;;;;;;1.70;0.95;;;27.00;47.00;;;;;;952893;146;27298;-71
2022/07/15 07:19:40;;;;;;;1.02;1.00;;;27.30;47.30;;;;;;953261;146;27342;-73
2022/07/15 07:22:06;;;;;;;2.22;1.10;;;27.50;46.90;;;;;;933263;151;27467;-70
2022/07/15 07:24:33;;;;;;;1.45;1.10;;;27.70;47.20;;;;;;934146;149;27316;-70
2022/07/15 07:26:59;;;;;;;1.72;0.98;;;28.10;47.10;;;;;;935590;149;27388;-70
2022/07/15 07:29:26;;;;;;;1.67;1.35;;;28.40;47.00;;;;;;936108;149;27664;-71
2022/07/15 07:31:53;;;;;;;2.25;1.25;;;28.80;46.40;;;;;;935260;149;28996;-73
2022/07/15 07:34:19;;;;;;;1.52;1.10;;;29.20;45.90;;;;;;934561;149;27355;-71
2022/07/15 07:36:46;;;;;;;1.57;1.07;;;29.60;45.10;;;;;;934127;149;27796;-70
2022/07/15 07:39:12;;;;;;;1.60;1.00;;;29.90;44.80;;;;;;935836;149;27407;-71
2022/07/15 07:41:39;;;;;;;1.50;1.15;;;30.30;44.50;;;;;;934008;149;27431;-71
2022/07/15 07:44:06;;;;;;;1.25;0.93;;;30.70;44.30;;;;;;935047;149;27394;-71
2022/07/15 07:46:32;;;;;;;1.52;0.68;;;31.10;43.80;;;;;;938416;149;27436;-73
2022/07/15 07:48:59;;;;;;;3.10;1.10;;;31.50;43.40;;;;;;935432;149;27503;-71
2022/07/15 07:51:25;;;;;;;2.05;0.90;;;32.00;43.40;;;;;;936669;149;27349;-71
2022/07/15 07:53:52;;;;;;;1.40;0.95;;;32.50;43.10;;;;;;935783;149;27451;-71
2022/07/15 07:56:18;;;;;;;1.25;0.90;;;33.10;42.60;;;;;;937758;149;27429;-72
2022/07/15 07:58:45;;;;;;;2.08;1.02;;;33.70;41.80;;;;;;933313;149;27360;-73
2022/07/15 08:01:12;;;;;;;3.15;1.10;;;34.10;40.90;;;;;;934244;149;27453;-71
2022/07/15 08:03:38;;;;;;;1.72;1.17;;;34.50;38.00;;;;;;935069;149;27311;-71
2022/07/15 08:06:05;;;;;;;1.37;0.95;;;34.70;38.80;;;;;;936136;149;26233;-71
2022/07/15 08:08:31;;;;;;;1.17;0.70;;;34.90;38.30;;;;;;936182;149;27346;-71
2022/07/15 08:10:58;;;;;;;3.08;1.12;;;35.00;38.10;;;;;;935987;149;26238;-73
2022/07/15 08:13:25;;;;;;;0.95;0.80;;;35.10;37.90;;;;;;936758;149;27424;-71
2022/07/15 08:15:53;;;;;;;2.02;1.12;;;35.10;37.40;;;;;;935370;149;27914;-72
2022/07/15 08:18:18;;;;;;;1.22;1.00;;;35.10;36.70;;;;;;938149;149;27340;-71
2022/07/15 08:20:44;;;;;;;1.77;1.05;;;34.90;35.70;;;;;;937234;149;27437;-71
2022/07/15 08:23:11;;;;;;;1.05;0.70;;;34.60;35.80;;;;;;936416;149;27322;-71
2022/07/15 08:25:38;;;;;;;1.92;0.82;;;34.20;36.30;;;;;;938056;149;27319;-74
2022/07/15 08:28:04;;;;;;;1.52;0.85;;;34.00;36.40;;;;;;939297;149;27444;-71
2022/07/15 08:30:31;;;;;;;0.68;0.62;;;33.80;36.70;;;;;;936368;149;27304;-71
2022/07/15 08:32:57;;;;;;;2.70;1.00;;;33.70;36.80;;;;;;937663;149;27414;-71
2022/07/15 08:35:24;;;;;;;1.90;1.30;;;33.60;36.60;;;;;;938243;149;27326;-73
2022/07/15 08:37:51;;;;;;;1.37;1.00;;;33.50;36.40;;;;;;936241;149;27283;-72
2022/07/15 08:40:17;;;;;;;1.70;0.80;;;33.30;35.70;;;;;;937271;149;27390;-71
2022/07/15 08:42:45;;;;;;;2.67;1.10;;;33.00;35.60;;;;;;936618;149;27376;-72
2022/07/15 08:45:10;;;;;;;1.77;1.07;;;32.80;36.00;;;;;;936962;149;27966;-72
2022/07/15 08:47:40;;;;;;;2.35;1.17;;;32.70;36.90;;;;;;938361;149;27492;-71
2022/07/15 08:50:06;;;;;;;1.52;0.90;;;32.80;37.70;;;;;;937199;149;27328;-72
2022/07/15 08:52:33;;;;;;;1.42;1.00;;;33.10;38.00;;;;;;935909;149;27449;-71
2022/07/15 08:55:00;;;;;;;1.72;0.95;;;33.50;37.80;;;;;;939273;149;27384;-73
2022/07/15 08:57:26;;;;;;;2.62;1.57;;;33.80;37.20;;;;;;937575;149;27868;-71
2022/07/15 08:59:53;;;;;;;2.50;1.17;;;34.10;36.10;;;;;;938247;149;27751;-72
2022/07/15 09:02:19;;;;;;;2.22;1.10;;;34.20;35.80;;;;;;940268;149;27362;-72
2022/07/15 09:05:23;;;;;;;1.35;1.12;;;34.20;35.30;;;;;;936637;149;27845;-74
2022/07/15 09:07:52;;;;;;;1.72;0.95;;;34.10;35.90;;;;;;938693;149;27358;-71
2022/07/15 09:10:16;;;;;;;1.90;1.30;;;34.00;35.40;;;;;;936983;149;27470;-74
2022/07/15 09:12:43;;;;;;;2.00;1.42;;;33.90;35.40;;;;;;935738;149;27503;-71
2022/07/15 09:15:09;;;;;;;1.07;0.98;;;33.90;35.60;;;;;;937661;149;27345;-71
2022/07/15 09:17:36;;;;;;;1.52;1.17;;;33.90;35.50;;;;;;933561;151;27500;-71
2022/07/15 09:20:09;;;;;;;1.65;1.30;;;33.80;35.20;;;;;;938919;149;27421;-73
2022/07/15 09:22:47;;;;;;;1.45;1.07;;;33.70;34.90;;;;;;939546;151;27330;-72
2022/07/15 09:25:14;;;;;;;1.87;1.07;;;33.50;34.50;;;;;;941905;151;27491;-71
2022/07/15 09:27:40;;;;;;;2.02;1.20;;;33.30;34.40;;;;;;940326;148;27790;-71
2022/07/15 09:36:10;;;;;;;1.52;1.27;;;32.00;33.70;;;;;;940125;151;27486;-71
2022/07/15 09:38:42;;;;;;;2.85;1.37;;;31.50;34.40;;;;;;937863;151;27452;-72
2022/07/15 09:41:06;;;;;;;1.92;1.60;;;31.10;34.70;;;;;;940130;149;27362;-71
2022/07/15 09:43:32;;;;;;;2.05;1.27;;;30.70;35.10;;;;;;940942;151;27368;-71
2022/07/15 09:45:59;;;;;;;2.77;1.50;;;30.30;35.70;;;;;;939122;151;27337;-71
2022/07/15 09:48:28;;;;;;;1.50;1.40;;;30.20;36.20;;;;;;939540;149;27403;-72
2022/07/15 09:50:52;;;;;;;1.30;1.20;;;30.10;36.50;;;;;;941687;149;27394;-74
2022/07/15 09:53:18;;;;;;;1.25;1.15;;;30.10;37.00;;;;;;942397;148;27395;-71
2022/07/15 09:55:45;;;;;;;1.62;1.40;;;30.20;36.90;;;;;;939274;151;27365;-71
2022/07/15 09:58:12;;;;;;;3.25;1.60;;;30.40;36.60;;;;;;940248;148;27282;-71
2022/07/15 10:00:38;;;;;;;1.57;1.47;;;30.50;36.60;;;;;;938068;148;27468;-71
2022/07/15 10:03:05;;;;;;;1.75;1.17;;;30.70;36.50;;;;;;940634;151;27378;-73
2022/07/15 10:05:32;;;;;;;2.83;1.12;;;30.80;36.20;;;;;;941137;148;27475;-74
2022/07/15 10:08:01;;;;;;;1.47;1.35;;;31.10;36.30;;;;;;939897;148;27374;-73
2022/07/15 10:10:27;;;;;;;2.67;1.50;;;31.20;36.40;;;;;;939962;149;27351;-72
2022/07/15 10:12:54;;;;;;;2.10;1.90;;;31.50;36.60;;;;;;942275;151;27391;-72
2022/07/15 10:15:48;;;;;;;1.70;1.60;;;31.80;36.20;;;;;;939106;151;27275;-71
2022/07/15 10:18:39;;;;;;;3.77;1.52;;;32.00;36.20;;;;;;940313;149;27453;-72
2022/07/15 10:21:09;;;;;;;1.72;1.32;;;32.40;36.10;;;;;;940421;151;27343;-71
2022/07/15 10:23:38;;;;;;;1.82;1.35;;;32.80;35.80;;;;;;937463;151;28139;-74
2022/07/15 10:26:23;;;;;;;2.42;1.50;;;33.20;35.30;;;;;;938759;151;27315;-72
2022/07/15 10:28:56;;;;;;;2.05;1.50;;;33.40;34.60;;;;;;940408;149;27346;-71
2022/07/15 10:31:28;;;;;;;2.85;1.55;;;33.50;34.00;;;;;;936353;149;27436;-71
2022/07/15 10:34:04;;;;;;;1.77;1.22;;;33.50;33.60;;;;;;933132;154;27462;-71
2022/07/15 10:36:39;;;;;;;1.70;1.22;;;33.40;33.40;;;;;;937296;151;27543;-72
2022/07/15 10:39:05;;;;;;;2.72;1.47;;;33.20;33.30;;;;;;939761;149;27403;-72
2022/07/15 10:41:51;;;;;;;2.22;2.02;;;33.00;33.40;;;;;;941039;151;27476;-72
2022/07/15 10:44:17;;;;;;;1.57;0.98;;;32.80;33.30;;;;;;939694;149;27298;-72
2022/07/15 10:46:44;;;;;;;2.60;1.87;;;32.70;33.50;;;;;;940729;148;27334;-72
2022/07/15 10:49:10;;;;;;;1.92;1.75;;;32.50;33.50;;;;;;939718;149;27471;-73
2022/07/15 10:51:37;;;;;;;2.92;1.37;;;32.50;33.60;;;;;;938552;148;27516;-71
2022/07/15 10:54:06;;;;;;;1.65;1.45;;;32.50;33.60;;;;;;939357;149;27338;-72
2022/07/15 10:56:34;;;;;;;1.42;1.32;;;32.40;33.40;;;;;;939304;148;27365;-72
2022/07/15 10:59:08;;;;;;;1.32;1.22;;;32.40;33.50;;;;;;941112;151;27383;-72
2022/07/15 11:01:34;;;;;;;1.55;1.45;;;32.30;33.40;;;;;;937682;149;27360;-72
2022/07/15 11:04:17;;;;;;;1.67;1.57;;;32.20;33.40;;;;;;942784;151;27326;-71
2022/07/15 11:07:07;;;;;;;2.27;1.80;;;32.10;33.30;;;;;;939811;151;27339;-71
2022/07/15 11:09:54;;;;;;;2.42;1.40;;;32.00;33.30;;;;;;939170;151;27332;-71
2022/07/15 11:12:23;;;;;;;2.22;1.52;;;31.70;33.50;;;;;;940049;151;27610;-71
2022/07/15 11:14:56;;;;;;;2.55;1.72;;;31.40;33.50;;;;;;939631;151;27392;-71
2022/07/15 11:17:25;;;;;;;1.77;1.67;;;31.30;33.80;;;;;;941632;148;27334;-71
2022/07/15 11:19:51;;;;;;;2.20;1.72;;;31.20;34.30;;;;;;935252;149;27353;-73
2022/07/15 11:22:18;;;;;;;1.52;1.42;;;31.10;34.30;;;;;;935812;149;27392;-71
2022/07/15 11:24:45;;;;;;;1.77;1.32;;;31.10;34.30;;;;;;935958;149;27355;-71
2022/07/15 11:27:11;;;;;;;2.12;1.50;;;31.10;34.30;;;;;;935669;149;27323;-71
2022/07/15 11:29:47;;;;;;;1.82;1.70;;;31.10;34.30;;;;;;936345;149;27438;-71
2022/07/15 11:32:13;;;;;;;1.75;1.65;;;31.10;34.30;;;;;;935602;149;27326;-72
2022/07/15 11:34:40;;;;;;;2.47;1.60;;;31.10;34.20;;;;;;937213;149;27384;-70
2022/07/15 11:37:06;;;;;;;1.75;1.45;;;31.10;34.00;;;;;;933790;149;27373;-70
2022/07/15 11:39:33;;;;;;;2.92;1.40;;;31.00;34.10;;;;;;935210;149;27325;-70
2022/07/15 11:44:50;;;;;;;1.90;1.50;;;30.90;34.70;;;;;;936450;149;27408;-71
2022/07/15 11:47:17;;;;;;;2.37;1.47;;;30.80;34.40;;;;;;936668;149;27359;-70
2022/07/15 11:49:43;;;;;;;2.40;1.70;;;30.80;34.30;;;;;;935593;149;27497;-70
2022/07/15 11:52:12;;;;;;;1.80;1.60;;;30.70;34.10;;;;;;937442;149;27942;-72
2022/07/15 11:54:39;;;;;;;1.75;1.52;;;30.60;33.70;;;;;;933683;149;27349;-70
2022/07/15 11:57:08;;;;;;;1.95;1.72;;;30.50;33.80;;;;;;935111;149;27360;-73
2022/07/15 11:59:35;;;;;;;3.08;1.77;;;30.30;33.60;;;;;;937085;149;27363;-71
2022/07/15 12:02:10;;;;;;;2.85;1.80;;;30.10;33.80;;;;;;936424;149;27344;-71
2022/07/15 12:04:36;;;;;;;1.90;1.67;;;30.00;33.90;;;;;;935931;149;27356;-71
2022/07/15 12:07:03;;;;;;;2.67;1.47;;;29.80;34.20;;;;;;935681;149;27449;-72
2022/07/15 12:09:42;;;;;;;2.20;1.57;;;29.70;34.30;;;;;;934114;149;27394;-70
2022/07/15 12:12:08;;;;;;;1.62;1.52;;;29.60;34.50;;;;;;936110;149;27408;-70
2022/07/15 12:14:35;;;;;;;1.52;1.35;;;29.50;34.70;;;;;;936636;149;27330;-70
2022/07/15 12:17:01;;;;;;;1.98;1.55;;;29.50;34.60;;;;;;934953;149;27347;-70
2022/07/15 12:19:28;;;;;;;1.65;1.55;;;29.50;34.70;;;;;;938737;149;27343;-72
2022/07/15 12:21:55;;;;;;;3.42;2.00;;;29.50;34.60;;;;;;940329;151;27470;-71
2022/07/15 12:24:21;;;;;;;1.72;1.62;;;29.40;34.50;;;;;;940030;151;27310;-71
2022/07/15 12:26:51;;;;;;;1.80;1.70;;;29.40;34.30;;;;;;938748;151;27317;-70
2022/07/15 12:29:17;;;;;;;1.67;1.57;;;29.40;34.40;;;;;;941758;149;27438;-71
2022/07/15 12:31:44;;;;;;;1.65;1.55;;;29.30;34.50;;;;;;938964;149;27439;-73
2022/07/15 12:34:10;;;;;;;2.17;1.82;;;29.20;34.60;;;;;;939750;148;27496;-70
2022/07/15 12:36:38;;;;;;;2.27;1.52;;;29.20;34.60;;;;;;941828;148;27407;-71
2022/07/15 12:39:03;;;;;;;1.70;1.60;;;29.10;34.70;;;;;;937880;148;27491;-70
2022/07/15 12:41:30;;;;;;;1.87;1.65;;;29.00;34.70;;;;;;940234;148;27303;-71
2022/07/15 12:43:57;;;;;;;2.77;1.60;;;29.00;35.00;;;;;;941071;149;27279;-71
2022/07/15 12:46:57;;;;;;;2.47;1.50;;;29.00;34.70;;;;;;940508;151;27359;-70
2022/07/15 12:49:49;;;;;;;3.02;1.80;;;29.00;34.70;;;;;;942898;148;27373;-73
2022/07/15 12:52:23;;;;;;;1.92;1.27;;;29.00;34.90;;;;;;938759;151;27393;-71
2022/07/15 12:54:49;;;;;;;3.10;2.10;;;29.00;35.00;;;;;;941357;149;27357;-71
2022/07/15 12:57:34;;;;;;;2.12;1.80;;;29.00;35.00;;;;;;940389;149;27367;-71
2022/07/15 13:00:04;;;;;;;1.80;1.70;;;29.00;35.60;;;;;;939544;149;27458;-70
2022/07/15 13:02:30;;;;;;;3.50;1.98;;;29.00;35.00;;;;;;939341;148;27352;-70